Aktualne dane pomiarowe

Uwaga, wersja testowa! Automatyczne pobieranie danych za pomocą narzędzi lub skryptów to umożliwiających jest zabronione.

Dane meteo z obszaru Polski uzyskane na podstawie depesz SYNOP pobieranych co godzinę z NWS. Najedź myszką na symbol przedstawiony w tabeli, aby uzyskać informacje co do jego znaczenia. Prosimy pamiętać, że to testowa wersja strony, która jeszcze nie jest ukończona. Stworzono również jest krótki FAQ dotyczący korzystania z tej podstrony Anomalie temperatury w chwili obecnej odniesione są do okresu referencyjnego 1951-2016. Okres ten będzie później zmieniony na 1981-2010. Kliknij ikonę aby pobrać plik CSV. Kliknij ikonę aby wygenerować mapę synoptyczną dla danego terminu.

Wybierz Datę:    

        

Przemyśl (12695)

Dane terminowe dla wybranej stacji. Kliknij datę, aby otrzymać dane z tego terminu dla wszystkich stacji.

TemperaturaZachmurzenieWiatrCiśnienieOpadyPogoda
 Data t td wb tx tn tg rh  Nt Nl Cl Cm Ch ws wd g1 g2 wx mslp ppp ch 24h 12h t ww ww w1 w2  
2019-06-30 23:00:00 24.3 14.8 18.2--- 55---3----1014.9 982.9 -0.4---wx-----
2019-06-30 22:00:00 24.4 14.8 18.3--- 55---4wx---1014.9 982.9 -0.5---wx-----
2019-06-30 21:00:00 24.1 15.2 18.3--- 58---4----1015.2 983.2 -0.4---wx-----
2019-06-30 20:00:00 25.0 15.2 18.7--- 55---0----1015.2 983.3 -0.5---------
2019-06-30 19:00:00 25.7 15.2 19.0--- 52---4----1015.3 983.5 -0.5---wx-----
2019-06-30 18:00:00 27.0 15.8 19.8 30.6 16.3- 50---3----1015.3 983.6 -0.7- 0.012wx-----
2019-06-30 17:00:00 28.7 15.9 20.5--- 46---3----1015.3 983.8 -0.9---wx-----
2019-06-30 16:00:00 29.7 15.0 20.4--- 41---4----1015.4 984.0 -1.2---wx-----
2019-06-30 15:00:00 30.4 14.3 20.3--- 38---3----1015.7 984.3 -1.2---wx-----
2019-06-30 14:00:00 30.5 15.1 20.7--- 39---3----1016.1 984.7 -1.1---wx-----
2019-06-30 13:00:00 29.8 14.0 19.9--- 38---3----1016.7 985.2 -1.0---wx-----
2019-06-30 12:00:00 29.1 13.1 19.2--- 37---4----1017.1 985.5 -0.9- 0.06wx-----
2019-06-30 11:00:00 28.2 13.5 19.1--- 41---4----1017.5 985.8 -0.6---wx-----
2019-06-30 10:00:00 27.5 13.3 18.7--- 42---3----1018.0 986.2 -0.2---wx-----
2019-06-30 09:00:00 26.1 13.9 18.5--- 47---4----1018.4 986.5 0.0---wx-----
2019-06-30 08:00:00 24.6 14.2 18.0--- 52---4----1018.5 986.4 0.5---wx-----
2019-06-30 07:00:00 22.7 13.3 16.8--- 55---4wx---1018.7 986.4 0.7---wx-----
2019-06-30 06:00:00 20.6 12.8 15.7 24.3 16.3 15 61---4wx---1018.9 986.4 0.9 0.0 0.012wx---- 11.6
2019-06-30 05:00:00 18.5 12.0 14.4--- 66---4wx---1018.7 985.9 0.4---wx-----
2019-06-30 04:00:00 17.0 11.4 13.4--- 70---4wx---1018.6 985.7 0.0---------
2019-06-30 03:00:00 16.3 11.3 13.1--- 72---4wx---1018.5 985.5 -0.4---wx-----
2019-06-30 02:00:00 16.8 11.3 13.3--- 70---4wx---1018.4 985.5 -0.4---wx-----
2019-06-30 01:00:00 16.7 11.4 13.3--- 71---4wx---1018.6 985.7 -0.4---wx-----
2019-06-30 00:00:00 17.5 11.2 13.5--- 67---4wx---1018.8 985.9 0.0---------
2019-06-29 23:00:00 18.0 11.0 13.7--- 64---4wx---1018.7 985.9 -0.3---------
2019-06-29 22:00:00 18.1 11.1 13.7--- 64---3wx---1018.8 986.0 0.0---------
2019-06-29 21:00:00 19.0 11.0 14.1--- 60---3wx---1018.7 986.1 0.2---------
2019-06-29 20:00:00 20.2 10.7 14.5--- 54---3wx---1018.8 986.3 0.5---wx-----
2019-06-29 19:00:00 21.2 10.4 14.8--- 50---2wx---1018.6 986.1 0.3---wx-----
2019-06-29 18:00:00 23.0 10.8 15.7 24.3 13.6- 46---2wx---1018.1 985.8 -0.2- 0.012wx-----
2019-06-29 17:00:00 24.1 9.7 15.7--- 40---0----1017.9 985.8 -0.6---------
2019-06-29 16:00:00 24.1 9.0 15.4--- 38---0----1018.0 985.9 -0.8---------
2019-06-29 15:00:00 23.8 10.5 15.9--- 43---2----1018.3 986.1 -1.1---wx-----
2019-06-29 14:00:00 23.6 10.2 15.7--- 43---4wx---1018.6 986.4 -1.3---------
2019-06-29 13:00:00 22.6 9.6 15.0--- 44---4wx---1019.0 986.7 -1.2---------
2019-06-29 12:00:00 22.1 8.9 14.5--- 43---4----1019.6 987.2 -0.7- 0.06wx-----
2019-06-29 11:00:00 21.7 8.5 14.1--- 43---4----1020.2 987.7 -0.4---wx-----
2019-06-29 10:00:00 21.3 8.9 14.1--- 45---4wx---1020.4 987.9 -0.4---wx-----
2019-06-29 09:00:00 20.1 8.5 13.4--- 47---3----1020.5 987.9 -0.6---wx-----
2019-06-29 08:00:00 19.1 8.5 13.0--- 50---2----1020.9 988.1 -0.2---wx-----
2019-06-29 07:00:00 17.5 8.2 12.1--- 54---3----1021.2 988.3 0.0---wx-----
2019-06-29 06:00:00 15.9 8.7 11.6 21.8 13.6 13 62---3----1021.7 988.5 0.9 0.0 0.012wx---- 12.0
2019-06-29 05:00:00 14.7 7.7 10.6--- 63---4----1021.6 988.3 0.9---wx-----
2019-06-29 04:00:00 14.2 7.3 10.1--- 63---4----1021.4 988.1 1.2---wx-----
2019-06-29 03:00:00 13.8 7.1 9.9--- 64---3----1021.0 987.6 0.7---wx-----
2019-06-29 02:00:00 14.1 7.7 10.3--- 65---3----1020.8 987.5 0.8---wx-----
2019-06-29 01:00:00 15.0 8.0 10.8--- 63---3----1020.2 987.0 0.6---wx-----
2019-06-29 00:00:00 16.1 8.9 11.8--- 62---3----1019.9 986.9 0.5- 0.06wx-----
1.1 ms

 

Print Friendly, PDF & Email